createdAt,value
2017-12-31T00:00:42.262Z,99157
2017-12-31T00:01:42.144Z,99168
2017-12-31T00:02:41.345Z,99163
2017-12-31T00:03:41.263Z,99167
2017-12-31T00:04:41.273Z,99177
2017-12-31T00:05:41.469Z,99173
2017-12-31T00:06:41.561Z,99170
2017-12-31T00:07:41.597Z,99175
2017-12-31T00:08:41.665Z,99176
2017-12-31T00:09:41.716Z,99172
2017-12-31T00:10:41.703Z,99174
2017-12-31T00:11:42.747Z,99171
2017-12-31T00:12:41.849Z,99169
2017-12-31T00:13:42.992Z,99175
2017-12-31T00:14:42.886Z,99175
2017-12-31T00:15:41.996Z,99177
2017-12-31T00:16:42.093Z,99162
2017-12-31T00:17:42.082Z,99177
2017-12-31T00:18:42.234Z,99173
2017-12-31T00:19:42.165Z,99166
2017-12-31T00:20:42.185Z,99174
2017-12-31T00:21:42.232Z,99172
2017-12-31T00:22:42.406Z,99162
2017-12-31T00:23:42.357Z,99173
2017-12-31T00:24:43.425Z,99176
2017-12-31T00:25:42.621Z,99166
2017-12-31T00:26:43.659Z,99173
2017-12-31T00:27:42.665Z,99175
2017-12-31T00:28:42.770Z,99177
2017-12-31T00:29:42.886Z,99181
2017-12-31T00:30:42.906Z,99185
2017-12-31T00:31:43.896Z,99179
2017-12-31T00:32:43.007Z,99180
2017-12-31T00:33:43.107Z,99173
2017-12-31T00:34:44.167Z,99178
2017-12-31T00:35:43.090Z,99178
2017-12-31T00:36:44.252Z,99182
2017-12-31T00:37:44.325Z,99171
2017-12-31T00:38:44.403Z,99187
2017-12-31T00:39:43.496Z,99185
2017-12-31T00:40:44.465Z,99175
2017-12-31T00:41:44.548Z,99177
2017-12-31T00:42:44.622Z,99183
2017-12-31T00:43:43.620Z,99176
2017-12-31T00:44:43.663Z,99185
2017-12-31T00:45:43.626Z,99187
2017-12-31T00:46:43.807Z,99176
2017-12-31T00:47:43.897Z,99184
2017-12-31T00:48:44.873Z,99184
2017-12-31T00:49:44.040Z,99188
2017-12-31T00:50:45.057Z,99185
2017-12-31T00:51:44.966Z,99178
2017-12-31T00:52:44.044Z,99181
2017-12-31T00:53:45.168Z,99174
2017-12-31T00:54:44.297Z,99180
2017-12-31T00:55:44.279Z,99182
2017-12-31T00:56:44.315Z,99172
2017-12-31T00:57:44.309Z,99171
2017-12-31T00:58:44.371Z,99180
2017-12-31T00:59:45.549Z,99175
2017-12-31T01:00:44.541Z,99174
2017-12-31T01:01:44.702Z,99174
2017-12-31T01:02:45.659Z,99168
2017-12-31T01:03:44.698Z,99173
2017-12-31T01:04:44.745Z,99168
2017-12-31T01:05:44.858Z,99171
2017-12-31T01:06:44.792Z,99173
2017-12-31T01:07:45.764Z,99180
2017-12-31T01:08:45.956Z,99184
2017-12-31T01:09:45.042Z,99184
2017-12-31T01:10:45.038Z,99184
2017-12-31T01:11:46.194Z,99184
2017-12-31T01:12:45.250Z,99185
2017-12-31T01:13:46.245Z,99187
2017-12-31T01:14:45.283Z,99174
2017-12-31T01:15:45.286Z,99182
2017-12-31T01:16:45.383Z,99185
2017-12-31T01:17:45.463Z,99181
2017-12-31T01:18:46.590Z,99175
2017-12-31T01:19:45.688Z,99173
2017-12-31T01:20:46.704Z,99178
2017-12-31T01:21:45.695Z,99176
2017-12-31T01:22:46.815Z,99175
2017-12-31T01:23:46.918Z,99168
2017-12-31T01:24:46.925Z,99168
2017-12-31T01:25:45.946Z,99162
2017-12-31T01:26:46.027Z,99168
2017-12-31T01:27:46.018Z,99173
2017-12-31T01:28:46.191Z,99168
2017-12-31T01:29:46.157Z,99173
2017-12-31T01:30:46.216Z,99169
2017-12-31T01:31:47.241Z,99170
2017-12-31T01:32:46.339Z,99172
2017-12-31T01:33:46.466Z,99172
2017-12-31T01:34:46.564Z,99170
2017-12-31T01:35:47.630Z,99168
2017-12-31T01:36:46.734Z,99168
2017-12-31T01:37:47.742Z,99170
2017-12-31T01:38:47.777Z,99173
2017-12-31T01:39:46.791Z,99165
2017-12-31T01:40:46.886Z,99151
2017-12-31T01:41:47.016Z,99168
2017-12-31T01:42:47.870Z,99164
2017-12-31T01:43:46.998Z,99169
2017-12-31T01:44:47.982Z,99165
2017-12-31T01:45:47.057Z,99168
2017-12-31T01:46:48.195Z,99165
2017-12-31T01:47:48.224Z,99164
2017-12-31T01:48:47.180Z,99164
2017-12-31T01:49:48.242Z,99161
2017-12-31T01:50:47.404Z,99155
2017-12-31T01:51:47.476Z,99156
2017-12-31T01:52:47.417Z,99154
2017-12-31T01:53:48.534Z,99163
2017-12-31T01:54:48.429Z,99163
2017-12-31T01:55:47.582Z,99164
2017-12-31T01:56:47.610Z,99162
2017-12-31T01:57:47.544Z,99167
2017-12-31T01:58:47.604Z,99158
2017-12-31T01:59:48.730Z,99170
2017-12-31T02:00:47.714Z,99169
2017-12-31T02:01:48.786Z,99171
2017-12-31T02:02:47.973Z,99167
2017-12-31T02:03:48.036Z,99164
2017-12-31T02:04:49.103Z,99164
2017-12-31T02:05:49.108Z,99154
2017-12-31T02:06:48.077Z,99171
2017-12-31T02:07:49.196Z,99162
2017-12-31T02:08:48.203Z,99158
2017-12-31T02:09:49.365Z,99160
2017-12-31T02:10:49.343Z,99156
2017-12-31T02:11:48.468Z,99158
2017-12-31T02:12:48.612Z,99153
2017-12-31T02:13:49.594Z,99161
2017-12-31T02:14:48.703Z,99161
2017-12-31T02:15:49.814Z,99156
2017-12-31T02:16:48.954Z,99156
2017-12-31T02:17:49.050Z,99154
2017-12-31T02:18:50.058Z,99156
2017-12-31T02:19:49.135Z,99162
2017-12-31T02:20:49.031Z,99158
2017-12-31T02:21:49.072Z,99155
2017-12-31T02:22:49.046Z,99152
2017-12-31T02:23:50.119Z,99153
2017-12-31T02:24:49.427Z,99146
2017-12-31T02:25:50.276Z,99146
2017-12-31T02:26:49.346Z,99149
2017-12-31T02:27:49.262Z,99150
2017-12-31T02:28:50.263Z,99147
2017-12-31T02:29:50.255Z,99144
2017-12-31T02:30:49.325Z,99135
2017-12-31T02:31:50.476Z,99125
2017-12-31T02:32:49.418Z,99130
2017-12-31T02:33:50.392Z,99133
2017-12-31T02:34:49.489Z,99131
2017-12-31T02:35:49.526Z,99132
2017-12-31T02:36:49.625Z,99132
2017-12-31T02:37:49.725Z,99141
2017-12-31T02:38:49.776Z,99133
2017-12-31T02:39:50.856Z,99138
2017-12-31T02:40:49.777Z,99142
2017-12-31T02:41:49.881Z,99136
2017-12-31T02:42:50.023Z,99132
2017-12-31T02:43:50.072Z,99116
2017-12-31T02:44:50.149Z,99114
2017-12-31T02:45:50.197Z,99114
2017-12-31T02:46:51.438Z,99119
2017-12-31T02:47:51.148Z,99123
2017-12-31T02:48:50.189Z,99123
2017-12-31T02:49:51.219Z,99120
2017-12-31T02:50:51.291Z,99113
2017-12-31T02:51:50.363Z,99110
2017-12-31T02:52:51.726Z,99091
2017-12-31T02:53:51.532Z,99098
2017-12-31T02:54:50.590Z,99092
2017-12-31T02:55:51.659Z,99100
2017-12-31T02:56:50.682Z,99096
2017-12-31T02:57:51.740Z,99097
2017-12-31T02:58:50.706Z,99094
2017-12-31T02:59:50.737Z,99089
2017-12-31T03:00:50.756Z,99094
2017-12-31T03:01:51.752Z,99097
2017-12-31T03:02:51.797Z,99096
2017-12-31T03:03:50.897Z,99088
2017-12-31T03:04:52.003Z,99096
2017-12-31T03:05:51.118Z,99093
2017-12-31T03:06:52.107Z,99096
2017-12-31T03:07:52.082Z,99095
2017-12-31T03:08:52.127Z,99091
2017-12-31T03:09:51.189Z,99089
2017-12-31T03:10:52.301Z,99096
2017-12-31T03:11:51.416Z,99100
2017-12-31T03:12:51.350Z,99091
2017-12-31T03:13:52.523Z,99087
2017-12-31T03:14:52.576Z,99086
2017-12-31T03:15:52.492Z,99084
2017-12-31T03:16:51.528Z,99082
2017-12-31T03:17:52.633Z,99079
2017-12-31T03:18:51.721Z,99076
2017-12-31T03:19:52.743Z,99079
2017-12-31T03:20:51.726Z,99078
2017-12-31T03:21:51.733Z,99076
2017-12-31T03:22:51.752Z,99068
2017-12-31T03:23:52.891Z,99071
2017-12-31T03:24:51.807Z,99075
2017-12-31T03:25:52.974Z,99064
2017-12-31T03:26:51.940Z,99070
2017-12-31T03:27:51.985Z,99065
2017-12-31T03:28:52.159Z,99065
2017-12-31T03:29:52.174Z,99068
2017-12-31T03:30:52.104Z,99065
2017-12-31T03:31:53.223Z,99059
2017-12-31T03:32:52.143Z,99064
2017-12-31T03:33:53.143Z,99066
2017-12-31T03:34:52.219Z,99064
2017-12-31T03:35:53.359Z,99058
2017-12-31T03:36:52.309Z,99060
2017-12-31T03:37:52.477Z,99056
2017-12-31T03:38:52.381Z,99056
2017-12-31T03:39:53.527Z,99052
2017-12-31T03:40:52.494Z,99041
2017-12-31T03:41:52.637Z,99047
2017-12-31T03:42:52.728Z,99046
2017-12-31T03:43:52.819Z,99042
2017-12-31T03:44:53.700Z,99042
2017-12-31T03:45:52.748Z,99036
2017-12-31T03:46:52.768Z,99028
2017-12-31T03:47:53.833Z,99031
2017-12-31T03:48:53.159Z,99031
2017-12-31T03:49:52.919Z,99030
2017-12-31T03:50:54.047Z,99027
2017-12-31T03:51:53.147Z,99025
2017-12-31T03:52:53.130Z,99023
2017-12-31T03:53:53.187Z,99023
2017-12-31T03:54:54.320Z,99025
2017-12-31T03:55:53.298Z,99029
2017-12-31T03:56:53.219Z,99029
2017-12-31T03:57:54.388Z,99026
2017-12-31T03:58:54.473Z,99024
2017-12-31T03:59:53.367Z,99026
2017-12-31T04:00:53.516Z,99022
2017-12-31T04:01:54.509Z,99022
2017-12-31T04:02:54.581Z,99018
2017-12-31T04:03:53.622Z,99019
2017-12-31T04:04:53.682Z,99015
2017-12-31T04:05:53.672Z,99017
2017-12-31T04:06:54.671Z,99018
2017-12-31T04:07:53.809Z,99015
2017-12-31T04:08:53.844Z,99013
2017-12-31T04:09:54.936Z,99008
2017-12-31T04:10:54.881Z,99007
2017-12-31T04:11:55.101Z,99009
2017-12-31T04:12:54.034Z,99008
2017-12-31T04:13:54.094Z,99013
2017-12-31T04:14:55.179Z,99014
2017-12-31T04:15:54.137Z,99019
2017-12-31T04:16:54.262Z,99013
2017-12-31T04:17:54.372Z,99017
2017-12-31T04:18:55.378Z,99005
2017-12-31T04:19:54.439Z,98995
2017-12-31T04:20:54.507Z,99010
2017-12-31T04:21:54.564Z,99016
2017-12-31T04:22:54.464Z,99004
2017-12-31T04:23:54.646Z,99005
2017-12-31T04:24:54.632Z,99000
2017-12-31T04:25:54.780Z,99006
2017-12-31T04:26:54.874Z,99003
2017-12-31T04:27:54.921Z,99002
2017-12-31T04:28:55.958Z,99006
2017-12-31T04:29:54.960Z,99002
2017-12-31T04:30:55.964Z,99004
2017-12-31T04:31:55.079Z,99001
2017-12-31T04:32:56.220Z,98995
2017-12-31T04:33:55.196Z,99003
2017-12-31T04:34:56.163Z,98995
2017-12-31T04:35:55.243Z,98992
2017-12-31T04:36:55.371Z,99003
2017-12-31T04:37:55.290Z,98991
2017-12-31T04:38:56.281Z,98998
2017-12-31T04:39:55.367Z,99000
2017-12-31T04:40:56.441Z,99000
2017-12-31T04:41:55.438Z,98998
2017-12-31T04:42:55.438Z,98996
2017-12-31T04:43:56.609Z,98986
2017-12-31T04:44:55.674Z,98998
2017-12-31T04:45:55.733Z,98997
2017-12-31T04:46:55.758Z,99001
2017-12-31T04:47:56.746Z,98998
2017-12-31T04:48:55.698Z,98990
2017-12-31T04:49:56.664Z,98991
2017-12-31T04:50:55.815Z,98986
2017-12-31T04:51:55.730Z,98992
2017-12-31T04:52:55.784Z,98993
2017-12-31T04:53:55.827Z,98991
2017-12-31T04:54:55.831Z,98987
2017-12-31T04:55:55.874Z,98989
2017-12-31T04:56:56.956Z,98988
2017-12-31T04:57:55.968Z,98987
2017-12-31T04:58:56.045Z,98985
2017-12-31T04:59:56.120Z,98984
2017-12-31T05:00:56.232Z,98979
2017-12-31T05:01:57.319Z,98982
2017-12-31T05:02:56.393Z,98993
2017-12-31T05:03:56.327Z,98982
2017-12-31T05:04:57.405Z,98986
2017-12-31T05:05:56.370Z,98996
2017-12-31T05:06:56.405Z,98985
2017-12-31T05:07:56.550Z,98999
2017-12-31T05:08:57.543Z,98986
2017-12-31T05:09:56.527Z,99000
2017-12-31T05:10:57.557Z,98990
2017-12-31T05:11:56.607Z,98997
2017-12-31T05:12:56.618Z,99003
2017-12-31T05:13:56.715Z,98995
2017-12-31T05:14:57.816Z,99003
2017-12-31T05:15:57.909Z,98997
2017-12-31T05:16:56.920Z,98999
2017-12-31T05:17:58.043Z,98999
2017-12-31T05:18:57.033Z,98997
2017-12-31T05:19:57.069Z,99003
2017-12-31T05:20:57.089Z,98989
2017-12-31T05:21:57.152Z,99003
2017-12-31T05:22:57.325Z,99000
2017-12-31T05:23:58.356Z,99005
2017-12-31T05:24:57.356Z,99011
2017-12-31T05:25:58.511Z,99006
2017-12-31T05:26:57.606Z,99009
2017-12-31T05:27:57.638Z,99005
2017-12-31T05:28:57.641Z,99000
2017-12-31T05:29:57.674Z,98991
2017-12-31T05:30:57.581Z,99004
2017-12-31T05:31:57.629Z,98999
2017-12-31T05:32:57.807Z,98990
2017-12-31T05:33:58.772Z,99002
2017-12-31T05:34:57.927Z,99001
2017-12-31T05:35:57.981Z,98997
2017-12-31T05:36:59.043Z,99017
2017-12-31T05:37:58.094Z,99010
2017-12-31T05:38:58.114Z,99011
2017-12-31T05:39:59.071Z,99007
2017-12-31T05:40:58.157Z,99007
2017-12-31T05:41:59.337Z,99006
2017-12-31T05:42:58.375Z,99006
2017-12-31T05:43:59.274Z,98999
2017-12-31T05:44:58.630Z,99010
2017-12-31T05:45:59.520Z,99008
2017-12-31T05:46:59.581Z,99010
2017-12-31T05:47:59.540Z,99015
2017-12-31T05:48:59.527Z,99018
2017-12-31T05:49:58.589Z,99013
2017-12-31T05:51:00.049Z,99025
2017-12-31T05:51:58.683Z,99023
2017-12-31T05:52:58.755Z,99010
2017-12-31T05:53:58.900Z,99025
2017-12-31T05:54:59.778Z,99027
2017-12-31T05:55:58.900Z,99020
2017-12-31T05:56:59.918Z,99015
2017-12-31T05:57:59.109Z,99020
2017-12-31T05:59:00.124Z,99013
2017-12-31T06:00:00.049Z,99012
2017-12-31T06:00:59.184Z,99023
2017-12-31T06:01:59.150Z,99010
2017-12-31T06:02:59.184Z,99022
2017-12-31T06:03:59.205Z,99004
2017-12-31T06:04:59.322Z,98993
2017-12-31T06:05:59.452Z,99011
2017-12-31T06:06:59.524Z,98999
2017-12-31T06:07:59.499Z,99004
2017-12-31T06:09:00.664Z,99006
2017-12-31T06:09:59.588Z,99004
2017-12-31T06:10:59.781Z,99000
2017-12-31T06:11:59.780Z,99001
2017-12-31T06:13:00.816Z,98997
2017-12-31T06:14:00.052Z,98999
2017-12-31T06:14:59.932Z,98996
2017-12-31T06:16:00.965Z,98997
2017-12-31T06:16:59.995Z,98996
2017-12-31T06:18:00.146Z,98987
2017-12-31T06:19:01.126Z,98992
2017-12-31T06:20:00.119Z,98997
2017-12-31T06:21:01.240Z,98976
2017-12-31T06:23:00.263Z,98990
2017-12-31T06:24:01.235Z,98982
2017-12-31T06:25:01.401Z,98992
2017-12-31T06:26:00.447Z,98997
2017-12-31T06:27:01.477Z,98992
2017-12-31T06:28:00.515Z,99002
2017-12-31T06:29:00.456Z,98997
2017-12-31T06:30:00.674Z,98990
2017-12-31T06:31:00.688Z,98986
2017-12-31T06:32:01.623Z,98999
2017-12-31T06:33:00.683Z,98997
2017-12-31T06:34:00.855Z,98999
2017-12-31T06:35:00.847Z,98994
2017-12-31T06:36:00.997Z,98993
2017-12-31T06:37:01.095Z,98996
2017-12-31T06:38:01.080Z,98985
2017-12-31T06:39:01.012Z,99002
2017-12-31T06:40:01.204Z,98987
2017-12-31T06:41:02.245Z,98998
2017-12-31T06:42:01.336Z,98997
2017-12-31T06:43:02.267Z,99004
2017-12-31T06:44:02.293Z,98997
2017-12-31T06:45:02.412Z,98992
2017-12-31T06:46:01.490Z,98991
2017-12-31T06:47:01.550Z,98978
2017-12-31T06:48:01.604Z,98997
2017-12-31T06:49:01.567Z,98993
2017-12-31T06:50:02.708Z,98975
2017-12-31T06:51:01.745Z,98978
2017-12-31T06:52:01.827Z,98988
2017-12-31T06:53:01.749Z,98992
2017-12-31T06:54:01.829Z,98977
2017-12-31T06:55:01.993Z,98993
2017-12-31T06:56:02.898Z,98983
2017-12-31T06:57:02.001Z,98986
2017-12-31T06:58:02.128Z,98989
2017-12-31T06:59:03.087Z,98993
2017-12-31T07:00:03.160Z,98992
2017-12-31T07:01:02.187Z,98997
2017-12-31T07:02:02.288Z,99002
2017-12-31T07:03:03.271Z,98986
2017-12-31T07:04:03.175Z,98995
2017-12-31T07:05:02.385Z,98986
2017-12-31T07:06:02.401Z,98992
2017-12-31T07:07:02.426Z,99005
2017-12-31T07:08:03.496Z,99008
2017-12-31T07:09:02.426Z,98990
2017-12-31T07:10:02.546Z,99012
2017-12-31T07:11:03.488Z,99010
2017-12-31T07:12:02.640Z,99008
2017-12-31T07:13:02.682Z,99009
2017-12-31T07:14:02.592Z,99010
2017-12-31T07:15:02.773Z,99013
2017-12-31T07:16:03.678Z,99007
2017-12-31T07:17:02.770Z,99009
2017-12-31T07:18:02.939Z,99003
2017-12-31T07:19:02.889Z,99008
2017-12-31T07:20:03.066Z,99017
2017-12-31T07:21:04.114Z,99002
2017-12-31T07:22:04.115Z,99007
2017-12-31T07:23:04.167Z,98998
2017-12-31T07:24:03.295Z,99008
2017-12-31T07:25:03.241Z,99002
2017-12-31T07:26:03.360Z,98987
2017-12-31T07:27:03.444Z,99011
2017-12-31T07:28:03.484Z,99002
2017-12-31T07:29:04.443Z,99002
2017-12-31T07:30:03.625Z,99007
2017-12-31T07:31:03.566Z,99002
2017-12-31T07:32:04.695Z,98989
2017-12-31T07:33:03.624Z,99004
2017-12-31T07:34:04.600Z,99008
2017-12-31T07:35:03.691Z,99008
2017-12-31T07:36:03.800Z,98998
2017-12-31T07:37:03.906Z,99005
2017-12-31T07:38:04.938Z,98987
2017-12-31T07:39:04.876Z,98996
2017-12-31T07:40:03.966Z,98991
2017-12-31T07:41:04.107Z,98990
2017-12-31T07:42:04.078Z,98986
2017-12-31T07:43:04.186Z,98993
2017-12-31T07:44:05.305Z,98988
2017-12-31T07:45:04.225Z,98985
2017-12-31T07:46:04.311Z,98995
2017-12-31T07:47:04.456Z,98990
2017-12-31T07:48:05.430Z,98999
2017-12-31T07:49:05.503Z,99002
2017-12-31T07:50:04.604Z,98985
2017-12-31T07:51:05.471Z,98976
2017-12-31T07:52:05.600Z,98983
2017-12-31T07:53:04.716Z,98982
2017-12-31T07:54:05.727Z,98989
2017-12-31T07:55:04.682Z,98983
2017-12-31T07:56:04.739Z,98987
2017-12-31T07:57:05.842Z,98970
2017-12-31T07:58:05.913Z,98985
2017-12-31T07:59:04.819Z,98991
2017-12-31T08:00:05.949Z,98990
2017-12-31T08:01:05.016Z,98995
2017-12-31T08:02:05.008Z,98990
2017-12-31T08:03:06.061Z,98990
2017-12-31T08:04:06.159Z,98997
2017-12-31T08:05:06.206Z,98986
2017-12-31T08:06:06.206Z,98971
2017-12-31T08:07:05.300Z,99002
2017-12-31T08:08:06.300Z,99002
2017-12-31T08:09:06.373Z,98997
2017-12-31T08:10:06.415Z,99007
2017-12-31T08:11:05.364Z,98997
2017-12-31T08:12:06.474Z,98995
2017-12-31T08:13:06.568Z,98996
2017-12-31T08:14:05.604Z,99001
2017-12-31T08:15:06.709Z,98988
2017-12-31T08:16:05.821Z,98998
2017-12-31T08:17:05.845Z,99005
2017-12-31T08:18:06.893Z,99009
2017-12-31T08:19:05.825Z,98992
2017-12-31T08:20:05.888Z,98991
2017-12-31T08:21:05.947Z,98991
2017-12-31T08:22:06.051Z,98997
2017-12-31T08:23:06.130Z,98996
2017-12-31T08:24:06.155Z,99000
2017-12-31T08:25:06.337Z,99002
2017-12-31T08:26:07.292Z,98983
2017-12-31T08:27:06.448Z,99000
2017-12-31T08:28:06.372Z,99002
2017-12-31T08:29:12.211Z,98999
2017-12-31T08:30:07.547Z,98999
2017-12-31T08:31:07.618Z,98986
2017-12-31T08:32:07.543Z,98996
2017-12-31T08:33:06.658Z,99008
2017-12-31T08:34:06.820Z,99002
2017-12-31T08:35:06.846Z,99007
2017-12-31T08:36:07.862Z,99015
2017-12-31T08:37:06.934Z,99013
2017-12-31T08:38:06.915Z,99012
2017-12-31T08:39:07.021Z,99009
2017-12-31T08:40:07.943Z,99013
2017-12-31T08:41:07.058Z,99012
2017-12-31T08:42:08.115Z,99017
2017-12-31T08:43:07.339Z,99015
2017-12-31T08:44:07.316Z,99013
2017-12-31T08:45:07.323Z,99016
2017-12-31T08:46:07.530Z,98998
2017-12-31T08:47:08.408Z,99014
2017-12-31T08:48:07.652Z,99015
2017-12-31T08:49:08.628Z,99007
2017-12-31T08:50:07.749Z,99016
2017-12-31T08:51:08.779Z,99002
2017-12-31T08:52:07.867Z,99005
2017-12-31T08:53:07.966Z,98998
2017-12-31T08:54:08.946Z,99002
2017-12-31T08:55:07.954Z,99014
2017-12-31T08:56:09.082Z,99002
2017-12-31T08:57:08.096Z,99008
2017-12-31T08:58:08.294Z,98997
2017-12-31T08:59:09.294Z,99003
2017-12-31T09:00:09.413Z,99004
2017-12-31T09:01:09.467Z,98996
2017-12-31T09:02:09.496Z,98997
2017-12-31T09:03:08.620Z,98991
2017-12-31T09:04:09.579Z,98998
2017-12-31T09:05:09.743Z,99006
2017-12-31T09:06:09.688Z,98999
2017-12-31T09:07:08.845Z,99009
2017-12-31T09:08:08.880Z,99013
2017-12-31T09:09:09.924Z,99011
2017-12-31T09:10:09.963Z,98999
2017-12-31T09:11:09.989Z,98999
2017-12-31T09:12:10.029Z,98989
2017-12-31T09:13:10.107Z,98999
2017-12-31T09:14:09.014Z,99006
2017-12-31T09:15:10.183Z,99010
2017-12-31T09:16:09.141Z,99016
2017-12-31T09:17:09.193Z,98999
2017-12-31T09:18:09.273Z,99004
2017-12-31T09:19:09.372Z,99003
2017-12-31T09:20:10.372Z,98996
2017-12-31T09:21:09.426Z,99003
2017-12-31T09:22:09.331Z,98992
2017-12-31T09:23:09.425Z,99006
2017-12-31T09:24:09.484Z,99001
2017-12-31T09:25:09.531Z,99006
2017-12-31T09:26:09.642Z,99005
2017-12-31T09:27:09.629Z,98992
2017-12-31T09:28:09.664Z,98982
2017-12-31T09:29:10.765Z,98995
2017-12-31T09:30:09.891Z,98990
2017-12-31T09:31:10.928Z,98995
2017-12-31T09:32:09.871Z,98987
2017-12-31T09:33:09.890Z,98979
2017-12-31T09:34:10.073Z,98996
2017-12-31T09:35:10.175Z,98993
2017-12-31T09:36:11.071Z,98990
2017-12-31T09:37:11.121Z,98992
2017-12-31T09:38:11.345Z,98992
2017-12-31T09:39:11.305Z,98989
2017-12-31T09:40:10.373Z,98994
2017-12-31T09:41:10.521Z,98987
2017-12-31T09:42:11.541Z,98990
2017-12-31T09:43:11.638Z,98977
2017-12-31T09:44:10.612Z,98983
2017-12-31T09:45:10.609Z,98980
2017-12-31T09:46:11.747Z,98982
2017-12-31T09:47:10.782Z,98972
2017-12-31T09:48:10.860Z,98982
2017-12-31T09:49:10.920Z,98981
2017-12-31T09:50:10.887Z,98983
2017-12-31T09:51:10.961Z,98973
2017-12-31T09:52:11.168Z,98968
2017-12-31T09:53:11.124Z,98976
2017-12-31T09:54:12.296Z,98977
2017-12-31T09:55:12.185Z,98977
2017-12-31T09:56:11.311Z,98974
2017-12-31T09:57:11.368Z,98970
2017-12-31T09:58:12.531Z,98975
2017-12-31T09:59:11.552Z,98981
2017-12-31T10:00:11.466Z,98970
2017-12-31T10:01:11.665Z,98984
2017-12-31T10:02:11.648Z,98983
2017-12-31T10:03:12.702Z,98979
2017-12-31T10:04:11.837Z,98972
2017-12-31T10:05:12.883Z,98984
2017-12-31T10:06:12.813Z,98976
2017-12-31T10:07:12.888Z,98971
2017-12-31T10:08:12.964Z,98977
2017-12-31T10:09:12.081Z,98975
2017-12-31T10:10:12.172Z,98963
2017-12-31T10:11:12.238Z,98971
2017-12-31T10:12:12.330Z,98979
2017-12-31T10:13:13.281Z,98968
2017-12-31T10:14:12.414Z,98967
2017-12-31T10:15:12.392Z,98964
2017-12-31T10:16:12.508Z,98964
2017-12-31T10:17:12.506Z,98959
2017-12-31T10:18:13.489Z,98974
2017-12-31T10:19:12.714Z,98958
2017-12-31T10:20:13.592Z,98965
2017-12-31T10:21:12.804Z,98959
2017-12-31T10:22:13.801Z,98945
2017-12-31T10:23:13.826Z,98954
2017-12-31T10:24:12.944Z,98946
2017-12-31T10:25:14.006Z,98949
2017-12-31T10:26:14.030Z,98953
2017-12-31T10:27:13.923Z,98944
2017-12-31T10:28:13.015Z,98948
2017-12-31T10:29:13.088Z,98959
2017-12-31T10:30:13.252Z,98942
2017-12-31T10:31:13.337Z,98947
2017-12-31T10:32:13.369Z,98935
2017-12-31T10:33:13.362Z,98948
2017-12-31T10:34:14.333Z,98949
2017-12-31T10:35:14.530Z,98945
2017-12-31T10:36:14.500Z,98941
2017-12-31T10:37:13.609Z,98935
2017-12-31T10:38:14.629Z,98934
2017-12-31T10:39:13.849Z,98939
2017-12-31T10:40:13.946Z,98933
2017-12-31T10:41:15.000Z,98937
2017-12-31T10:42:14.123Z,98929
2017-12-31T10:43:15.145Z,98948
2017-12-31T10:44:15.115Z,98939
2017-12-31T10:45:14.315Z,98927
2017-12-31T10:46:14.253Z,98926
2017-12-31T10:47:14.303Z,98924
2017-12-31T10:48:14.413Z,98926
2017-12-31T10:49:15.412Z,98927
2017-12-31T10:50:14.534Z,98922
2017-12-31T10:51:14.603Z,98915
2017-12-31T10:52:14.475Z,98923
2017-12-31T10:53:15.523Z,98925
2017-12-31T10:54:15.661Z,98918
2017-12-31T10:55:15.718Z,98922
2017-12-31T10:56:14.655Z,98911
2017-12-31T10:57:14.763Z,98914
2017-12-31T10:58:14.805Z,98909
2017-12-31T10:59:14.822Z,98890
2017-12-31T11:00:14.739Z,98916
2017-12-31T11:01:15.773Z,98917
2017-12-31T11:02:15.943Z,98921
2017-12-31T11:03:15.968Z,98924
2017-12-31T11:04:15.864Z,98928
2017-12-31T11:05:14.921Z,98909
2017-12-31T11:06:16.073Z,98916
2017-12-31T11:07:15.191Z,98917
2017-12-31T11:08:16.189Z,98921
2017-12-31T11:09:15.213Z,98915
2017-12-31T11:10:15.260Z,98918
2017-12-31T11:11:15.328Z,98907
2017-12-31T11:12:15.513Z,98913
2017-12-31T11:13:16.522Z,98927
2017-12-31T11:14:16.456Z,98918
2017-12-31T11:15:15.575Z,98914
2017-12-31T11:16:15.685Z,98912
2017-12-31T11:17:16.755Z,98909
2017-12-31T11:18:16.695Z,98898
2017-12-31T11:19:15.782Z,98910
2017-12-31T11:20:15.886Z,98909
2017-12-31T11:21:16.898Z,98909
2017-12-31T11:22:16.934Z,98909
2017-12-31T11:23:16.895Z,98914
2017-12-31T11:24:15.940Z,98902
2017-12-31T11:25:15.989Z,98905
2017-12-31T11:26:16.008Z,98902
2017-12-31T11:27:16.044Z,98897
2017-12-31T11:28:16.069Z,98902
2017-12-31T11:29:16.169Z,98892
2017-12-31T11:30:16.341Z,98904
2017-12-31T11:31:16.300Z,98899
2017-12-31T11:32:17.299Z,98897
2017-12-31T11:33:17.321Z,98886
2017-12-31T11:34:16.414Z,98886
2017-12-31T11:35:17.519Z,98877
2017-12-31T11:36:16.572Z,98899
2017-12-31T11:37:16.561Z,98882
2017-12-31T11:38:16.582Z,98889
2017-12-31T11:39:17.639Z,98892
2017-12-31T11:40:17.830Z,98879
2017-12-31T11:41:16.840Z,98885
2017-12-31T11:42:17.881Z,98885
2017-12-31T11:43:16.923Z,98873
2017-12-31T11:44:18.051Z,98874
2017-12-31T11:45:17.078Z,98883
2017-12-31T11:46:17.069Z,98873
2017-12-31T11:47:18.019Z,98873
2017-12-31T11:48:18.145Z,98876
2017-12-31T11:49:17.213Z,98866
2017-12-31T11:50:18.188Z,98858
2017-12-31T11:51:17.114Z,98868
2017-12-31T11:52:17.183Z,98870
2017-12-31T11:53:17.316Z,98862
2017-12-31T11:54:17.301Z,98871
2017-12-31T11:55:17.376Z,98875
2017-12-31T11:56:17.469Z,98874
2017-12-31T11:57:17.557Z,98877
2017-12-31T11:58:18.656Z,98859
2017-12-31T11:59:17.661Z,98859
2017-12-31T12:00:17.780Z,98857
2017-12-31T12:01:17.757Z,98871
2017-12-31T12:02:17.810Z,98847
2017-12-31T12:03:18.005Z,98841
2017-12-31T12:04:18.010Z,98844
2017-12-31T12:05:18.042Z,98845
2017-12-31T12:06:18.020Z,98848
2017-12-31T12:07:19.011Z,98845
2017-12-31T12:08:18.067Z,98838
2017-12-31T12:09:19.164Z,98835
2017-12-31T12:10:18.088Z,98836
2017-12-31T12:11:18.090Z,98842
2017-12-31T12:12:18.132Z,98849
2017-12-31T12:13:18.258Z,98847
2017-12-31T12:14:18.331Z,98825
2017-12-31T12:15:18.360Z,98839
2017-12-31T12:16:18.250Z,98839
2017-12-31T12:17:19.299Z,98832
2017-12-31T12:18:19.352Z,98834
2017-12-31T12:19:18.497Z,98820
2017-12-31T12:20:18.449Z,98844
2017-12-31T12:21:18.528Z,98840
2017-12-31T12:22:19.505Z,98843
2017-12-31T12:23:18.579Z,98844
2017-12-31T12:24:19.638Z,98840
2017-12-31T12:25:18.746Z,98838
2017-12-31T12:26:18.815Z,98846
2017-12-31T12:27:18.766Z,98836
2017-12-31T12:28:19.906Z,98849
2017-12-31T12:29:19.009Z,98837
2017-12-31T12:30:18.988Z,98833
2017-12-31T12:31:20.008Z,98843
2017-12-31T12:32:20.059Z,98839
2017-12-31T12:33:19.073Z,98830
2017-12-31T12:34:20.188Z,98825
2017-12-31T12:35:19.305Z,98827
2017-12-31T12:36:20.295Z,98819
2017-12-31T12:37:20.263Z,98819
2017-12-31T12:38:19.379Z,98824
2017-12-31T12:39:19.503Z,98820
2017-12-31T12:40:19.487Z,98819
2017-12-31T12:41:20.504Z,98814
2017-12-31T12:42:19.699Z,98815
2017-12-31T12:43:19.644Z,98813
2017-12-31T12:44:19.760Z,98822
2017-12-31T12:45:19.660Z,98805
2017-12-31T12:46:20.760Z,98811
2017-12-31T12:47:20.705Z,98807
2017-12-31T12:48:19.919Z,98815
2017-12-31T12:49:19.856Z,98814
2017-12-31T12:50:19.997Z,98814
2017-12-31T12:51:21.057Z,98813
2017-12-31T12:52:20.965Z,98806
2017-12-31T12:53:21.128Z,98806
2017-12-31T12:54:20.122Z,98807